sensor_id;sensor_type;location;lat;lon;timestamp;P1;durP1;ratioP1;P2;durP2;ratioP2
5811;SDS011;2932;52.400;9.558;2022-12-18T00:01:24;8.73;;;5.27;;
5811;SDS011;2932;52.400;9.558;2022-12-18T00:03:50;15.10;;;5.80;;
5811;SDS011;2932;52.400;9.558;2022-12-18T00:06:16;9.83;;;5.63;;
5811;SDS011;2932;52.400;9.558;2022-12-18T00:08:43;8.57;;;4.80;;
5811;SDS011;2932;52.400;9.558;2022-12-18T00:11:13;11.20;;;6.00;;
5811;SDS011;2932;52.400;9.558;2022-12-18T00:13:40;11.73;;;6.10;;
5811;SDS011;2932;52.400;9.558;2022-12-18T00:16:07;13.17;;;6.17;;
5811;SDS011;2932;52.400;9.558;2022-12-18T00:18:35;11.57;;;5.43;;
5811;SDS011;2932;52.400;9.558;2022-12-18T00:21:02;11.70;;;6.07;;
5811;SDS011;2932;52.400;9.558;2022-12-18T00:23:30;13.40;;;7.20;;
5811;SDS011;2932;52.400;9.558;2022-12-18T00:26:04;17.23;;;7.37;;
5811;SDS011;2932;52.400;9.558;2022-12-18T00:28:32;11.47;;;5.60;;
5811;SDS011;2932;52.400;9.558;2022-12-18T00:31:05;9.30;;;5.60;;
5811;SDS011;2932;52.400;9.558;2022-12-18T00:33:32;10.77;;;5.87;;
5811;SDS011;2932;52.400;9.558;2022-12-18T00:36:17;16.03;;;8.43;;
5811;SDS011;2932;52.400;9.558;2022-12-18T00:38:44;10.37;;;5.77;;
5811;SDS011;2932;52.400;9.558;2022-12-18T00:41:10;9.80;;;6.53;;
5811;SDS011;2932;52.400;9.558;2022-12-18T00:43:37;9.40;;;5.57;;
5811;SDS011;2932;52.400;9.558;2022-12-18T00:46:03;16.50;;;7.70;;
5811;SDS011;2932;52.400;9.558;2022-12-18T00:48:29;11.53;;;5.60;;
5811;SDS011;2932;52.400;9.558;2022-12-18T00:50:58;14.27;;;6.13;;
5811;SDS011;2932;52.400;9.558;2022-12-18T00:53:23;12.20;;;5.83;;
5811;SDS011;2932;52.400;9.558;2022-12-18T00:55:48;9.50;;;5.00;;
5811;SDS011;2932;52.400;9.558;2022-12-18T00:58:14;12.87;;;6.07;;
5811;SDS011;2932;52.400;9.558;2022-12-18T01:00:41;11.90;;;6.53;;
5811;SDS011;2932;52.400;9.558;2022-12-18T01:03:07;15.10;;;7.20;;
5811;SDS011;2932;52.400;9.558;2022-12-18T01:05:32;17.77;;;7.20;;
5811;SDS011;2932;52.400;9.558;2022-12-18T01:07:58;14.20;;;6.40;;
5811;SDS011;2932;52.400;9.558;2022-12-18T01:10:24;11.83;;;6.13;;
5811;SDS011;2932;52.400;9.558;2022-12-18T01:12:50;11.43;;;6.67;;
5811;SDS011;2932;52.400;9.558;2022-12-18T01:15:16;11.33;;;6.13;;
5811;SDS011;2932;52.400;9.558;2022-12-18T01:17:43;10.40;;;5.90;;
5811;SDS011;2932;52.400;9.558;2022-12-18T01:20:09;13.50;;;5.53;;
5811;SDS011;2932;52.400;9.558;2022-12-18T01:22:36;11.00;;;5.20;;
5811;SDS011;2932;52.400;9.558;2022-12-18T01:25:02;10.73;;;5.77;;
5811;SDS011;2932;52.400;9.558;2022-12-18T01:27:28;9.30;;;4.80;;
5811;SDS011;2932;52.400;9.558;2022-12-18T01:29:53;11.17;;;5.57;;
5811;SDS011;2932;52.400;9.558;2022-12-18T01:32:19;11.90;;;5.57;;
5811;SDS011;2932;52.400;9.558;2022-12-18T01:34:44;9.50;;;5.50;;
5811;SDS011;2932;52.400;9.558;2022-12-18T01:37:09;10.73;;;6.13;;
5811;SDS011;2932;52.400;9.558;2022-12-18T01:39:35;10.10;;;5.33;;
5811;SDS011;2932;52.400;9.558;2022-12-18T01:42:08;8.57;;;5.17;;
5811;SDS011;2932;52.400;9.558;2022-12-18T01:44:50;9.90;;;5.07;;
5811;SDS011;2932;52.400;9.558;2022-12-18T01:52:33;8.93;;;4.77;;
5811;SDS011;2932;52.400;9.558;2022-12-18T01:55:00;11.60;;;5.27;;
5811;SDS011;2932;52.400;9.558;2022-12-18T01:57:27;12.13;;;6.07;;
5811;SDS011;2932;52.400;9.558;2022-12-18T01:59:53;10.03;;;6.07;;
5811;SDS011;2932;52.400;9.558;2022-12-18T02:02:24;8.87;;;5.03;;
5811;SDS011;2932;52.400;9.558;2022-12-18T02:04:52;8.67;;;5.10;;
5811;SDS011;2932;52.400;9.558;2022-12-18T02:12:47;8.87;;;5.50;;
5811;SDS011;2932;52.400;9.558;2022-12-18T02:15:21;11.17;;;5.43;;
5811;SDS011;2932;52.400;9.558;2022-12-18T02:18:08;10.00;;;5.37;;
5811;SDS011;2932;52.400;9.558;2022-12-18T02:28:26;9.93;;;6.67;;
5811;SDS011;2932;52.400;9.558;2022-12-18T02:30:56;10.90;;;5.33;;
5811;SDS011;2932;52.400;9.558;2022-12-18T02:33:27;12.53;;;8.43;;
5811;SDS011;2932;52.400;9.558;2022-12-18T02:35:54;10.37;;;6.30;;
5811;SDS011;2932;52.400;9.558;2022-12-18T02:38:23;10.17;;;6.70;;
5811;SDS011;2932;52.400;9.558;2022-12-18T02:40:50;7.43;;;5.30;;
5811;SDS011;2932;52.400;9.558;2022-12-18T02:43:18;11.00;;;5.27;;
5811;SDS011;2932;52.400;9.558;2022-12-18T02:45:52;7.37;;;4.60;;
5811;SDS011;2932;52.400;9.558;2022-12-18T02:48:21;9.43;;;4.57;;
5811;SDS011;2932;52.400;9.558;2022-12-18T02:53:42;10.10;;;5.20;;
5811;SDS011;2932;52.400;9.558;2022-12-18T02:59:02;9.00;;;5.13;;
5811;SDS011;2932;52.400;9.558;2022-12-18T03:04:10;9.97;;;4.93;;
5811;SDS011;2932;52.400;9.558;2022-12-18T03:06:57;9.87;;;5.17;;
5811;SDS011;2932;52.400;9.558;2022-12-18T03:09:29;6.60;;;4.30;;
5811;SDS011;2932;52.400;9.558;2022-12-18T03:12:21;11.50;;;4.77;;
5811;SDS011;2932;52.400;9.558;2022-12-18T03:17:22;10.23;;;4.63;;
5811;SDS011;2932;52.400;9.558;2022-12-18T03:19:51;9.13;;;5.07;;
5811;SDS011;2932;52.400;9.558;2022-12-18T03:22:19;7.40;;;4.50;;
5811;SDS011;2932;52.400;9.558;2022-12-18T03:24:47;6.83;;;4.37;;
5811;SDS011;2932;52.400;9.558;2022-12-18T03:27:14;8.47;;;4.67;;
5811;SDS011;2932;52.400;9.558;2022-12-18T03:29:47;9.60;;;4.60;;
5811;SDS011;2932;52.400;9.558;2022-12-18T03:32:23;8.57;;;5.13;;
5811;SDS011;2932;52.400;9.558;2022-12-18T03:34:53;7.10;;;4.80;;
5811;SDS011;2932;52.400;9.558;2022-12-18T03:37:23;8.20;;;4.07;;
5811;SDS011;2932;52.400;9.558;2022-12-18T03:39:49;9.47;;;4.50;;
5811;SDS011;2932;52.400;9.558;2022-12-18T03:47:53;9.33;;;5.07;;
5811;SDS011;2932;52.400;9.558;2022-12-18T03:56:25;6.50;;;4.20;;
5811;SDS011;2932;52.400;9.558;2022-12-18T03:58:54;11.00;;;5.53;;
5811;SDS011;2932;52.400;9.558;2022-12-18T04:01:22;10.50;;;4.87;;
5811;SDS011;2932;52.400;9.558;2022-12-18T04:03:54;8.67;;;4.80;;
5811;SDS011;2932;52.400;9.558;2022-12-18T04:06:21;10.03;;;5.30;;
5811;SDS011;2932;52.400;9.558;2022-12-18T04:08:47;12.27;;;6.00;;
5811;SDS011;2932;52.400;9.558;2022-12-18T04:11:13;10.70;;;5.63;;
5811;SDS011;2932;52.400;9.558;2022-12-18T04:13:39;12.07;;;5.67;;
5811;SDS011;2932;52.400;9.558;2022-12-18T04:16:07;10.87;;;5.47;;
5811;SDS011;2932;52.400;9.558;2022-12-18T04:18:34;9.83;;;4.77;;
5811;SDS011;2932;52.400;9.558;2022-12-18T04:21:00;10.13;;;5.47;;
5811;SDS011;2932;52.400;9.558;2022-12-18T04:23:26;10.40;;;4.90;;
5811;SDS011;2932;52.400;9.558;2022-12-18T04:25:51;9.80;;;5.63;;
5811;SDS011;2932;52.400;9.558;2022-12-18T04:28:16;11.90;;;5.73;;
5811;SDS011;2932;52.400;9.558;2022-12-18T04:30:42;10.50;;;5.07;;
5811;SDS011;2932;52.400;9.558;2022-12-18T04:33:11;7.87;;;5.30;;
5811;SDS011;2932;52.400;9.558;2022-12-18T04:35:38;10.40;;;5.30;;
5811;SDS011;2932;52.400;9.558;2022-12-18T04:38:06;9.70;;;5.13;;
5811;SDS011;2932;52.400;9.558;2022-12-18T04:40:36;10.43;;;5.50;;
5811;SDS011;2932;52.400;9.558;2022-12-18T04:43:02;12.93;;;6.03;;
5811;SDS011;2932;52.400;9.558;2022-12-18T04:45:29;14.90;;;7.83;;
5811;SDS011;2932;52.400;9.558;2022-12-18T04:47:57;11.03;;;5.83;;
5811;SDS011;2932;52.400;9.558;2022-12-18T04:50:25;10.30;;;5.37;;
5811;SDS011;2932;52.400;9.558;2022-12-18T04:52:50;10.40;;;5.70;;
5811;SDS011;2932;52.400;9.558;2022-12-18T04:55:16;11.03;;;5.53;;
5811;SDS011;2932;52.400;9.558;2022-12-18T04:57:41;9.27;;;5.43;;
5811;SDS011;2932;52.400;9.558;2022-12-18T05:00:07;11.47;;;5.40;;
5811;SDS011;2932;52.400;9.558;2022-12-18T05:02:33;9.53;;;5.40;;
5811;SDS011;2932;52.400;9.558;2022-12-18T05:04:58;10.40;;;5.50;;
5811;SDS011;2932;52.400;9.558;2022-12-18T05:07:24;7.60;;;4.87;;
5811;SDS011;2932;52.400;9.558;2022-12-18T05:09:49;6.90;;;4.50;;
5811;SDS011;2932;52.400;9.558;2022-12-18T05:12:15;8.47;;;4.87;;
5811;SDS011;2932;52.400;9.558;2022-12-18T05:14:40;8.80;;;4.97;;
5811;SDS011;2932;52.400;9.558;2022-12-18T05:17:05;8.90;;;4.87;;
5811;SDS011;2932;52.400;9.558;2022-12-18T05:19:31;9.97;;;5.30;;
5811;SDS011;2932;52.400;9.558;2022-12-18T05:21:56;8.50;;;4.30;;
5811;SDS011;2932;52.400;9.558;2022-12-18T05:24:22;8.37;;;4.90;;
5811;SDS011;2932;52.400;9.558;2022-12-18T05:26:47;8.43;;;4.70;;
5811;SDS011;2932;52.400;9.558;2022-12-18T05:29:13;8.03;;;4.83;;
5811;SDS011;2932;52.400;9.558;2022-12-18T05:31:38;7.83;;;4.90;;
5811;SDS011;2932;52.400;9.558;2022-12-18T05:34:04;9.57;;;5.10;;
5811;SDS011;2932;52.400;9.558;2022-12-18T05:36:29;11.13;;;4.50;;
5811;SDS011;2932;52.400;9.558;2022-12-18T05:38:55;10.50;;;5.33;;
5811;SDS011;2932;52.400;9.558;2022-12-18T05:41:20;9.40;;;5.07;;
5811;SDS011;2932;52.400;9.558;2022-12-18T05:43:45;9.67;;;4.73;;
5811;SDS011;2932;52.400;9.558;2022-12-18T05:46:12;7.97;;;4.60;;
5811;SDS011;2932;52.400;9.558;2022-12-18T05:48:40;8.90;;;4.73;;
5811;SDS011;2932;52.400;9.558;2022-12-18T05:51:07;7.67;;;5.00;;
5811;SDS011;2932;52.400;9.558;2022-12-18T05:53:34;8.70;;;4.40;;
5811;SDS011;2932;52.400;9.558;2022-12-18T05:56:01;8.73;;;4.33;;
5811;SDS011;2932;52.400;9.558;2022-12-18T05:58:28;8.10;;;4.63;;
5811;SDS011;2932;52.400;9.558;2022-12-18T06:00:54;9.50;;;5.27;;
5811;SDS011;2932;52.400;9.558;2022-12-18T06:03:20;10.20;;;4.37;;
5811;SDS011;2932;52.400;9.558;2022-12-18T06:05:45;9.83;;;4.73;;
5811;SDS011;2932;52.400;9.558;2022-12-18T06:08:11;9.80;;;4.90;;
5811;SDS011;2932;52.400;9.558;2022-12-18T06:10:37;9.13;;;4.67;;
5811;SDS011;2932;52.400;9.558;2022-12-18T06:13:03;8.07;;;4.47;;
5811;SDS011;2932;52.400;9.558;2022-12-18T06:15:29;8.80;;;4.53;;
5811;SDS011;2932;52.400;9.558;2022-12-18T06:17:55;8.10;;;4.93;;
5811;SDS011;2932;52.400;9.558;2022-12-18T06:20:20;10.20;;;4.67;;
5811;SDS011;2932;52.400;9.558;2022-12-18T06:22:46;10.57;;;5.07;;
5811;SDS011;2932;52.400;9.558;2022-12-18T06:25:11;7.97;;;4.60;;
5811;SDS011;2932;52.400;9.558;2022-12-18T06:27:36;10.23;;;4.53;;
5811;SDS011;2932;52.400;9.558;2022-12-18T06:30:02;8.93;;;4.67;;
5811;SDS011;2932;52.400;9.558;2022-12-18T06:32:28;9.00;;;4.67;;
5811;SDS011;2932;52.400;9.558;2022-12-18T06:34:53;7.33;;;4.33;;
5811;SDS011;2932;52.400;9.558;2022-12-18T06:37:20;7.33;;;4.23;;
5811;SDS011;2932;52.400;9.558;2022-12-18T06:39:45;9.37;;;4.10;;
5811;SDS011;2932;52.400;9.558;2022-12-18T06:42:11;6.70;;;4.93;;
5811;SDS011;2932;52.400;9.558;2022-12-18T06:44:36;9.00;;;4.30;;
5811;SDS011;2932;52.400;9.558;2022-12-18T06:47:02;7.27;;;4.60;;
5811;SDS011;2932;52.400;9.558;2022-12-18T06:49:27;9.00;;;4.33;;
5811;SDS011;2932;52.400;9.558;2022-12-18T06:51:53;8.37;;;4.57;;
5811;SDS011;2932;52.400;9.558;2022-12-18T06:54:18;8.40;;;4.53;;
5811;SDS011;2932;52.400;9.558;2022-12-18T06:56:45;9.73;;;4.67;;
5811;SDS011;2932;52.400;9.558;2022-12-18T06:59:10;7.77;;;4.30;;
5811;SDS011;2932;52.400;9.558;2022-12-18T07:01:37;6.13;;;3.80;;
5811;SDS011;2932;52.400;9.558;2022-12-18T07:04:03;7.33;;;4.13;;
5811;SDS011;2932;52.400;9.558;2022-12-18T07:06:31;8.57;;;4.60;;
5811;SDS011;2932;52.400;9.558;2022-12-18T07:08:59;7.80;;;4.40;;
5811;SDS011;2932;52.400;9.558;2022-12-18T07:11:24;8.03;;;4.40;;
5811;SDS011;2932;52.400;9.558;2022-12-18T07:13:50;7.43;;;4.00;;
5811;SDS011;2932;52.400;9.558;2022-12-18T07:16:17;6.73;;;4.03;;
5811;SDS011;2932;52.400;9.558;2022-12-18T07:18:46;8.13;;;4.17;;
5811;SDS011;2932;52.400;9.558;2022-12-18T07:21:15;7.63;;;4.40;;
5811;SDS011;2932;52.400;9.558;2022-12-18T07:23:43;8.83;;;4.60;;
5811;SDS011;2932;52.400;9.558;2022-12-18T07:26:11;8.27;;;4.50;;
5811;SDS011;2932;52.400;9.558;2022-12-18T07:28:38;7.70;;;4.00;;
5811;SDS011;2932;52.400;9.558;2022-12-18T07:31:05;12.00;;;4.50;;
5811;SDS011;2932;52.400;9.558;2022-12-18T07:33:36;9.00;;;4.70;;
5811;SDS011;2932;52.400;9.558;2022-12-18T07:36:05;8.93;;;4.70;;
5811;SDS011;2932;52.400;9.558;2022-12-18T07:38:32;10.50;;;5.50;;
5811;SDS011;2932;52.400;9.558;2022-12-18T07:41:01;9.10;;;4.33;;
5811;SDS011;2932;52.400;9.558;2022-12-18T07:43:28;9.43;;;5.60;;
5811;SDS011;2932;52.400;9.558;2022-12-18T07:45:56;6.63;;;4.00;;
5811;SDS011;2932;52.400;9.558;2022-12-18T07:48:22;8.60;;;4.50;;
5811;SDS011;2932;52.400;9.558;2022-12-18T07:50:47;11.37;;;4.77;;
5811;SDS011;2932;52.400;9.558;2022-12-18T07:53:13;7.30;;;4.50;;
5811;SDS011;2932;52.400;9.558;2022-12-18T07:55:39;7.27;;;4.20;;
5811;SDS011;2932;52.400;9.558;2022-12-18T07:58:06;6.60;;;4.00;;
5811;SDS011;2932;52.400;9.558;2022-12-18T08:00:32;7.50;;;4.37;;
5811;SDS011;2932;52.400;9.558;2022-12-18T08:02:57;7.30;;;4.53;;
5811;SDS011;2932;52.400;9.558;2022-12-18T08:05:22;8.90;;;5.03;;
5811;SDS011;2932;52.400;9.558;2022-12-18T08:07:48;8.03;;;4.27;;
5811;SDS011;2932;52.400;9.558;2022-12-18T08:10:14;7.23;;;4.60;;
5811;SDS011;2932;52.400;9.558;2022-12-18T08:12:39;7.70;;;4.50;;
5811;SDS011;2932;52.400;9.558;2022-12-18T08:15:05;9.37;;;5.03;;
5811;SDS011;2932;52.400;9.558;2022-12-18T08:17:31;10.50;;;5.33;;
5811;SDS011;2932;52.400;9.558;2022-12-18T08:19:56;9.60;;;5.03;;
5811;SDS011;2932;52.400;9.558;2022-12-18T08:22:21;9.57;;;4.30;;
5811;SDS011;2932;52.400;9.558;2022-12-18T08:24:47;7.93;;;4.17;;
5811;SDS011;2932;52.400;9.558;2022-12-18T08:27:12;6.33;;;3.87;;
5811;SDS011;2932;52.400;9.558;2022-12-18T08:29:37;7.70;;;4.33;;
5811;SDS011;2932;52.400;9.558;2022-12-18T08:32:03;10.43;;;4.87;;
5811;SDS011;2932;52.400;9.558;2022-12-18T08:34:29;8.60;;;4.77;;
5811;SDS011;2932;52.400;9.558;2022-12-18T08:36:54;8.80;;;4.90;;
5811;SDS011;2932;52.400;9.558;2022-12-18T08:39:19;6.53;;;4.40;;
5811;SDS011;2932;52.400;9.558;2022-12-18T08:41:45;6.97;;;4.50;;
5811;SDS011;2932;52.400;9.558;2022-12-18T08:44:30;8.23;;;4.07;;
5811;SDS011;2932;52.400;9.558;2022-12-18T08:47:05;7.93;;;4.30;;
5811;SDS011;2932;52.400;9.558;2022-12-18T08:49:30;7.87;;;4.27;;
5811;SDS011;2932;52.400;9.558;2022-12-18T08:51:56;9.73;;;5.37;;
5811;SDS011;2932;52.400;9.558;2022-12-18T08:54:22;9.27;;;4.73;;
5811;SDS011;2932;52.400;9.558;2022-12-18T08:56:48;7.43;;;4.80;;
5811;SDS011;2932;52.400;9.558;2022-12-18T08:59:14;9.57;;;4.37;;
5811;SDS011;2932;52.400;9.558;2022-12-18T09:01:41;10.33;;;5.30;;
5811;SDS011;2932;52.400;9.558;2022-12-18T09:04:07;9.33;;;4.70;;
5811;SDS011;2932;52.400;9.558;2022-12-18T09:06:33;11.07;;;5.00;;
5811;SDS011;2932;52.400;9.558;2022-12-18T09:08:58;7.37;;;4.27;;
5811;SDS011;2932;52.400;9.558;2022-12-18T09:11:24;7.60;;;4.00;;
5811;SDS011;2932;52.400;9.558;2022-12-18T09:13:50;6.37;;;4.40;;
5811;SDS011;2932;52.400;9.558;2022-12-18T09:16:16;8.00;;;4.47;;
5811;SDS011;2932;52.400;9.558;2022-12-18T09:18:43;10.23;;;4.93;;
5811;SDS011;2932;52.400;9.558;2022-12-18T09:21:09;10.80;;;4.50;;
5811;SDS011;2932;52.400;9.558;2022-12-18T09:23:35;8.17;;;4.37;;
5811;SDS011;2932;52.400;9.558;2022-12-18T09:26:00;8.17;;;4.10;;
5811;SDS011;2932;52.400;9.558;2022-12-18T09:28:26;6.57;;;3.93;;
5811;SDS011;2932;52.400;9.558;2022-12-18T09:30:52;7.27;;;4.43;;
5811;SDS011;2932;52.400;9.558;2022-12-18T09:33:17;8.37;;;4.40;;
5811;SDS011;2932;52.400;9.558;2022-12-18T09:35:43;7.63;;;4.60;;
5811;SDS011;2932;52.400;9.558;2022-12-18T09:38:11;7.67;;;3.93;;
5811;SDS011;2932;52.400;9.558;2022-12-18T09:40:41;8.13;;;3.90;;
5811;SDS011;2932;52.400;9.558;2022-12-18T09:43:13;8.50;;;4.07;;
5811;SDS011;2932;52.400;9.558;2022-12-18T09:45:47;8.20;;;3.40;;
5811;SDS011;2932;52.400;9.558;2022-12-18T09:48:23;6.10;;;3.80;;
5811;SDS011;2932;52.400;9.558;2022-12-18T09:50:53;7.47;;;4.10;;
5811;SDS011;2932;52.400;9.558;2022-12-18T09:53:24;7.90;;;3.67;;
5811;SDS011;2932;52.400;9.558;2022-12-18T09:55:52;6.37;;;3.60;;
5811;SDS011;2932;52.400;9.558;2022-12-18T10:01:06;7.57;;;3.70;;
5811;SDS011;2932;52.400;9.558;2022-12-18T10:03:36;8.10;;;3.90;;
5811;SDS011;2932;52.400;9.558;2022-12-18T10:06:07;6.73;;;3.73;;
5811;SDS011;2932;52.400;9.558;2022-12-18T10:14:06;6.43;;;3.63;;
5811;SDS011;2932;52.400;9.558;2022-12-18T10:19:28;5.53;;;2.63;;
5811;SDS011;2932;52.400;9.558;2022-12-18T10:28:00;6.53;;;3.53;;
5811;SDS011;2932;52.400;9.558;2022-12-18T10:30:34;4.67;;;2.80;;
5811;SDS011;2932;52.400;9.558;2022-12-18T10:33:00;4.83;;;3.20;;
5811;SDS011;2932;52.400;9.558;2022-12-18T10:35:27;6.27;;;3.83;;
5811;SDS011;2932;52.400;9.558;2022-12-18T10:38:00;5.83;;;2.90;;
5811;SDS011;2932;52.400;9.558;2022-12-18T10:43:21;7.73;;;3.57;;
5811;SDS011;2932;52.400;9.558;2022-12-18T10:46:20;6.60;;;3.03;;
5811;SDS011;2932;52.400;9.558;2022-12-18T10:56:49;4.27;;;2.90;;
5811;SDS011;2932;52.400;9.558;2022-12-18T10:59:16;4.67;;;2.73;;
5811;SDS011;2932;52.400;9.558;2022-12-18T11:04:18;4.67;;;2.80;;
5811;SDS011;2932;52.400;9.558;2022-12-18T11:06:53;8.87;;;3.80;;
5811;SDS011;2932;52.400;9.558;2022-12-18T11:09:23;7.77;;;3.57;;
5811;SDS011;2932;52.400;9.558;2022-12-18T11:11:53;3.13;;;2.50;;
5811;SDS011;2932;52.400;9.558;2022-12-18T11:16:50;6.03;;;3.00;;
5811;SDS011;2932;52.400;9.558;2022-12-18T11:19:26;7.60;;;2.80;;
5811;SDS011;2932;52.400;9.558;2022-12-18T11:21:52;4.07;;;2.53;;
5811;SDS011;2932;52.400;9.558;2022-12-18T11:26:57;3.50;;;2.70;;
5811;SDS011;2932;52.400;9.558;2022-12-18T11:29:31;4.80;;;2.73;;
5811;SDS011;2932;52.400;9.558;2022-12-18T11:34:39;4.17;;;2.60;;
5811;SDS011;2932;52.400;9.558;2022-12-18T11:37:10;5.70;;;2.80;;
5811;SDS011;2932;52.400;9.558;2022-12-18T11:42:10;4.77;;;2.70;;
5811;SDS011;2932;52.400;9.558;2022-12-18T11:44:42;5.80;;;2.83;;
5811;SDS011;2932;52.400;9.558;2022-12-18T11:49:53;3.43;;;2.40;;
5811;SDS011;2932;52.400;9.558;2022-12-18T11:52:25;3.10;;;2.50;;
5811;SDS011;2932;52.400;9.558;2022-12-18T11:54:59;4.20;;;2.77;;
5811;SDS011;2932;52.400;9.558;2022-12-18T11:57:38;3.77;;;2.53;;
5811;SDS011;2932;52.400;9.558;2022-12-18T12:00:18;5.20;;;3.33;;
5811;SDS011;2932;52.400;9.558;2022-12-18T12:14:03;3.37;;;2.47;;
5811;SDS011;2932;52.400;9.558;2022-12-18T12:16:37;3.57;;;2.57;;
5811;SDS011;2932;52.400;9.558;2022-12-18T12:22:22;4.60;;;2.83;;
5811;SDS011;2932;52.400;9.558;2022-12-18T12:25:07;3.60;;;2.50;;
5811;SDS011;2932;52.400;9.558;2022-12-18T12:31:02;4.63;;;2.63;;
5811;SDS011;2932;52.400;9.558;2022-12-18T12:38:46;4.20;;;2.73;;
5811;SDS011;2932;52.400;9.558;2022-12-18T12:41:17;4.17;;;2.83;;
5811;SDS011;2932;52.400;9.558;2022-12-18T12:44:05;4.53;;;2.90;;
5811;SDS011;2932;52.400;9.558;2022-12-18T12:46:37;7.80;;;4.47;;
5811;SDS011;2932;52.400;9.558;2022-12-18T12:49:11;6.17;;;3.87;;
5811;SDS011;2932;52.400;9.558;2022-12-18T12:51:41;7.50;;;3.90;;
5811;SDS011;2932;52.400;9.558;2022-12-18T12:54:20;9.97;;;5.43;;
5811;SDS011;2932;52.400;9.558;2022-12-18T12:56:50;8.50;;;4.70;;
5811;SDS011;2932;52.400;9.558;2022-12-18T13:05:01;5.63;;;3.50;;
5811;SDS011;2932;52.400;9.558;2022-12-18T13:07:34;7.13;;;4.00;;
5811;SDS011;2932;52.400;9.558;2022-12-18T13:15:50;5.00;;;2.60;;
5811;SDS011;2932;52.400;9.558;2022-12-18T13:18:30;4.70;;;2.83;;
5811;SDS011;2932;52.400;9.558;2022-12-18T13:26:00;3.33;;;2.27;;
5811;SDS011;2932;52.400;9.558;2022-12-18T13:36:48;4.97;;;2.47;;
5811;SDS011;2932;52.400;9.558;2022-12-18T13:41:43;6.00;;;2.83;;
5811;SDS011;2932;52.400;9.558;2022-12-18T13:47:00;5.13;;;2.50;;
5811;SDS011;2932;52.400;9.558;2022-12-18T13:52:15;6.30;;;3.73;;
5811;SDS011;2932;52.400;9.558;2022-12-18T13:54:42;6.83;;;3.63;;
5811;SDS011;2932;52.400;9.558;2022-12-18T13:59:56;4.33;;;3.20;;
5811;SDS011;2932;52.400;9.558;2022-12-18T14:02:23;5.03;;;3.07;;
5811;SDS011;2932;52.400;9.558;2022-12-18T14:04:50;5.57;;;3.10;;
5811;SDS011;2932;52.400;9.558;2022-12-18T14:07:17;4.90;;;3.30;;
5811;SDS011;2932;52.400;9.558;2022-12-18T14:09:46;4.73;;;2.70;;
5811;SDS011;2932;52.400;9.558;2022-12-18T14:12:16;5.43;;;2.93;;
5811;SDS011;2932;52.400;9.558;2022-12-18T14:21:20;4.87;;;3.00;;
5811;SDS011;2932;52.400;9.558;2022-12-18T14:23:45;5.97;;;3.80;;
5811;SDS011;2932;52.400;9.558;2022-12-18T14:28:46;4.90;;;3.93;;
5811;SDS011;2932;52.400;9.558;2022-12-18T14:31:18;8.30;;;3.70;;
5811;SDS011;2932;52.400;9.558;2022-12-18T14:33:45;6.27;;;3.87;;
5811;SDS011;2932;52.400;9.558;2022-12-18T14:36:20;11.63;;;4.10;;
5811;SDS011;2932;52.400;9.558;2022-12-18T14:38:49;10.97;;;5.47;;
5811;SDS011;2932;52.400;9.558;2022-12-18T14:41:17;9.50;;;5.23;;
5811;SDS011;2932;52.400;9.558;2022-12-18T14:43:45;8.33;;;5.30;;
5811;SDS011;2932;52.400;9.558;2022-12-18T14:49:01;8.10;;;5.30;;
5811;SDS011;2932;52.400;9.558;2022-12-18T14:51:47;9.73;;;4.97;;
5811;SDS011;2932;52.400;9.558;2022-12-18T14:54:18;10.87;;;5.40;;
5811;SDS011;2932;52.400;9.558;2022-12-18T14:56:45;9.50;;;4.87;;
5811;SDS011;2932;52.400;9.558;2022-12-18T14:59:13;12.00;;;5.90;;
5811;SDS011;2932;52.400;9.558;2022-12-18T15:04:45;10.43;;;5.20;;
5811;SDS011;2932;52.400;9.558;2022-12-18T15:09:43;9.70;;;5.37;;
5811;SDS011;2932;52.400;9.558;2022-12-18T15:12:32;10.33;;;5.50;;
5811;SDS011;2932;52.400;9.558;2022-12-18T15:14:59;13.00;;;5.73;;
5811;SDS011;2932;52.400;9.558;2022-12-18T15:17:25;9.50;;;5.27;;
5811;SDS011;2932;52.400;9.558;2022-12-18T15:19:52;11.90;;;5.77;;
5811;SDS011;2932;52.400;9.558;2022-12-18T15:22:27;10.17;;;5.70;;
5811;SDS011;2932;52.400;9.558;2022-12-18T15:24:59;9.70;;;5.20;;
5811;SDS011;2932;52.400;9.558;2022-12-18T15:27:35;9.60;;;5.20;;
5811;SDS011;2932;52.400;9.558;2022-12-18T15:32:34;11.70;;;5.27;;
5811;SDS011;2932;52.400;9.558;2022-12-18T15:35:02;8.53;;;5.00;;
5811;SDS011;2932;52.400;9.558;2022-12-18T15:37:28;13.47;;;6.50;;
5811;SDS011;2932;52.400;9.558;2022-12-18T15:39:53;11.10;;;5.87;;
5811;SDS011;2932;52.400;9.558;2022-12-18T15:42:19;12.63;;;6.07;;
5811;SDS011;2932;52.400;9.558;2022-12-18T15:45:03;11.23;;;5.83;;
5811;SDS011;2932;52.400;9.558;2022-12-18T15:47:29;10.87;;;6.33;;
5811;SDS011;2932;52.400;9.558;2022-12-18T15:49:54;10.40;;;6.70;;
5811;SDS011;2932;52.400;9.558;2022-12-18T15:52:19;12.97;;;6.70;;
5811;SDS011;2932;52.400;9.558;2022-12-18T15:54:50;15.87;;;7.93;;
5811;SDS011;2932;52.400;9.558;2022-12-18T15:57:34;16.03;;;7.27;;
5811;SDS011;2932;52.400;9.558;2022-12-18T16:00:00;12.70;;;6.73;;
5811;SDS011;2932;52.400;9.558;2022-12-18T16:02:25;15.27;;;7.33;;
5811;SDS011;2932;52.400;9.558;2022-12-18T16:04:51;16.03;;;7.93;;
5811;SDS011;2932;52.400;9.558;2022-12-18T16:07:17;12.43;;;6.23;;
5811;SDS011;2932;52.400;9.558;2022-12-18T16:09:43;10.90;;;6.60;;
5811;SDS011;2932;52.400;9.558;2022-12-18T16:12:13;13.07;;;6.50;;
5811;SDS011;2932;52.400;9.558;2022-12-18T16:14:44;13.17;;;6.23;;
5811;SDS011;2932;52.400;9.558;2022-12-18T16:17:10;11.13;;;6.33;;
5811;SDS011;2932;52.400;9.558;2022-12-18T16:19:37;11.00;;;6.50;;
5811;SDS011;2932;52.400;9.558;2022-12-18T16:22:02;13.53;;;6.70;;
5811;SDS011;2932;52.400;9.558;2022-12-18T16:24:29;12.40;;;6.60;;
5811;SDS011;2932;52.400;9.558;2022-12-18T16:26:57;8.17;;;5.50;;
5811;SDS011;2932;52.400;9.558;2022-12-18T16:29:24;9.57;;;4.77;;
5811;SDS011;2932;52.400;9.558;2022-12-18T16:32:01;9.67;;;4.97;;
5811;SDS011;2932;52.400;9.558;2022-12-18T16:34:27;10.80;;;5.23;;
5811;SDS011;2932;52.400;9.558;2022-12-18T16:36:55;8.47;;;5.20;;
5811;SDS011;2932;52.400;9.558;2022-12-18T16:39:21;8.30;;;4.73;;
5811;SDS011;2932;52.400;9.558;2022-12-18T16:41:46;8.07;;;5.03;;
5811;SDS011;2932;52.400;9.558;2022-12-18T16:44:12;11.40;;;5.40;;
5811;SDS011;2932;52.400;9.558;2022-12-18T16:46:38;9.67;;;5.43;;
5811;SDS011;2932;52.400;9.558;2022-12-18T16:49:04;9.70;;;5.50;;
5811;SDS011;2932;52.400;9.558;2022-12-18T16:51:29;11.67;;;5.83;;
5811;SDS011;2932;52.400;9.558;2022-12-18T16:53:56;11.13;;;6.40;;
5811;SDS011;2932;52.400;9.558;2022-12-18T16:56:21;12.67;;;5.80;;
5811;SDS011;2932;52.400;9.558;2022-12-18T16:58:54;9.23;;;5.13;;
5811;SDS011;2932;52.400;9.558;2022-12-18T17:01:21;6.20;;;4.67;;
5811;SDS011;2932;52.400;9.558;2022-12-18T17:03:54;6.97;;;4.60;;
5811;SDS011;2932;52.400;9.558;2022-12-18T17:06:21;10.63;;;5.53;;
5811;SDS011;2932;52.400;9.558;2022-12-18T17:08:48;7.27;;;4.80;;
5811;SDS011;2932;52.400;9.558;2022-12-18T17:11:19;10.07;;;5.97;;
5811;SDS011;2932;52.400;9.558;2022-12-18T17:13:44;7.80;;;5.10;;
5811;SDS011;2932;52.400;9.558;2022-12-18T17:16:10;8.13;;;5.23;;
5811;SDS011;2932;52.400;9.558;2022-12-18T17:18:35;10.10;;;5.27;;
5811;SDS011;2932;52.400;9.558;2022-12-18T17:21:01;8.93;;;5.93;;
5811;SDS011;2932;52.400;9.558;2022-12-18T17:23:28;8.53;;;5.03;;
5811;SDS011;2932;52.400;9.558;2022-12-18T17:25:55;12.97;;;6.27;;
5811;SDS011;2932;52.400;9.558;2022-12-18T17:28:21;12.40;;;5.90;;
5811;SDS011;2932;52.400;9.558;2022-12-18T17:30:48;7.93;;;5.30;;
5811;SDS011;2932;52.400;9.558;2022-12-18T17:33:13;9.97;;;5.47;;
5811;SDS011;2932;52.400;9.558;2022-12-18T17:35:38;11.13;;;5.57;;
5811;SDS011;2932;52.400;9.558;2022-12-18T17:38:04;13.67;;;4.93;;
5811;SDS011;2932;52.400;9.558;2022-12-18T17:40:31;10.80;;;5.90;;
5811;SDS011;2932;52.400;9.558;2022-12-18T17:42:57;9.93;;;5.20;;
5811;SDS011;2932;52.400;9.558;2022-12-18T17:45:22;8.90;;;5.23;;
5811;SDS011;2932;52.400;9.558;2022-12-18T17:47:47;10.37;;;5.57;;
5811;SDS011;2932;52.400;9.558;2022-12-18T17:50:13;10.57;;;5.80;;
5811;SDS011;2932;52.400;9.558;2022-12-18T17:52:38;8.70;;;4.83;;
5811;SDS011;2932;52.400;9.558;2022-12-18T17:55:03;8.87;;;4.80;;
5811;SDS011;2932;52.400;9.558;2022-12-18T17:57:29;10.27;;;4.23;;
5811;SDS011;2932;52.400;9.558;2022-12-18T17:59:55;8.37;;;4.10;;